createdAt,value
2019-03-20T00:00:31.214Z,74.3
2019-03-20T00:01:30.192Z,74.6
2019-03-20T00:02:29.633Z,74.6
2019-03-20T00:03:28.600Z,74.7
2019-03-20T00:04:27.435Z,74.8
2019-03-20T00:04:57.672Z,74.8
2019-03-20T00:05:28.126Z,74.4
2019-03-20T00:05:58.692Z,74.4
2019-03-20T00:06:29.405Z,74.3
2019-03-20T00:06:59.641Z,74.3
2019-03-20T00:07:29.883Z,74.3
2019-03-20T00:08:00.135Z,74.3
2019-03-20T00:08:30.689Z,74.3
2019-03-20T00:09:01.231Z,74.3
2019-03-20T00:09:31.879Z,74.3
2019-03-20T00:10:02.121Z,74.3
2019-03-20T00:11:20.582Z,73.7
2019-03-20T00:12:19.409Z,73.4
2019-03-20T00:13:18.754Z,73.4
2019-03-20T00:14:17.400Z,73.4
2019-03-20T00:15:16.754Z,73.2
2019-03-20T00:15:47.494Z,73.2
2019-03-20T00:16:18.035Z,73
2019-03-20T00:16:48.776Z,73
2019-03-20T00:17:19.420Z,73
2019-03-20T00:17:49.966Z,73
2019-03-20T00:18:20.262Z,72.9
2019-03-20T00:18:50.492Z,72.9
2019-03-20T00:19:21.137Z,72.9
2019-03-20T00:19:51.689Z,72.9
2019-03-20T00:21:10.544Z,72.9
2019-03-20T00:22:09.883Z,72.9
2019-03-20T00:23:08.728Z,73.2
2019-03-20T00:24:08.063Z,73.1
2019-03-20T00:25:06.887Z,73.2
2019-03-20T00:26:06.110Z,73.4
2019-03-20T00:26:36.341Z,73.4
2019-03-20T00:27:06.587Z,73.6
2019-03-20T00:28:04.011Z,73.3
2019-03-20T00:29:02.824Z,72.8
2019-03-20T00:30:01.776Z,73
2019-03-20T00:30:31.917Z,73
2019-03-20T00:31:02.683Z,73.1
2019-03-20T00:31:33.241Z,73.1
2019-03-20T00:32:03.889Z,73.3
2019-03-20T00:32:59.021Z,73.6
2019-03-20T00:33:57.946Z,73.4
2019-03-20T00:35:01.606Z,73.3
2019-03-20T00:36:54.954Z,72.9
2019-03-20T00:37:54.196Z,73
2019-03-20T00:38:53.140Z,73.2
2019-03-20T00:39:52.079Z,73.2
2019-03-20T00:40:51.033Z,73.2
2019-03-20T00:41:21.278Z,73.2
2019-03-20T00:41:51.846Z,73.1
2019-03-20T00:42:49.169Z,73
2019-03-20T00:43:48.400Z,73
2019-03-20T00:44:47.139Z,73.2
2019-03-20T00:45:46.472Z,73.2
2019-03-20T00:46:45.206Z,73.3
2019-03-20T00:47:44.638Z,73.2
2019-03-20T00:48:43.615Z,73.3
2019-03-20T00:49:42.441Z,73.2
2019-03-20T00:50:41.672Z,73.2
2019-03-20T00:51:12.137Z,73.2
2019-03-20T00:51:42.395Z,73.3
2019-03-20T00:52:12.636Z,73.3
2019-03-20T00:52:43.096Z,73.7
2019-03-20T00:53:38.501Z,73.5
2019-03-20T00:54:37.223Z,73.3
2019-03-20T00:55:36.463Z,73.3
2019-03-20T00:56:35.789Z,73.3
2019-03-20T00:57:34.615Z,73.7
2019-03-20T00:58:33.442Z,73.5
2019-03-20T00:59:32.775Z,73.6
2019-03-20T01:00:31.710Z,74
2019-03-20T01:01:01.947Z,74
2019-03-20T01:01:32.209Z,73.9
2019-03-20T01:02:02.441Z,73.9
2019-03-20T01:03:28.454Z,74
2019-03-20T01:05:26.714Z,74.2
2019-03-20T01:06:25.947Z,74.1
2019-03-20T01:07:24.865Z,74.1
2019-03-20T01:08:23.611Z,74.1
2019-03-20T01:09:22.940Z,73.6
2019-03-20T01:10:21.693Z,74
2019-03-20T01:10:52.268Z,74
2019-03-20T01:11:22.826Z,74.1
2019-03-20T01:11:53.061Z,74.1
2019-03-20T01:12:23.625Z,74.2
2019-03-20T01:12:54.300Z,74.2
2019-03-20T01:14:17.895Z,74.1
2019-03-20T01:15:16.729Z,74.2
2019-03-20T01:16:15.680Z,74
2019-03-20T01:17:14.919Z,74.4
2019-03-20T01:18:13.738Z,74.2
2019-03-20T01:19:13.072Z,74.3
2019-03-20T01:20:11.919Z,74.3
2019-03-20T01:20:42.468Z,74.3
2019-03-20T01:21:13.019Z,74.3
2019-03-20T01:21:43.576Z,74.3
2019-03-20T01:22:13.818Z,74.5
2019-03-20T01:22:44.464Z,74.5
2019-03-20T01:23:15.111Z,74.4
2019-03-20T01:23:45.365Z,74.4
2019-03-20T01:25:06.836Z,74.3
2019-03-20T01:26:06.071Z,74.7
2019-03-20T01:27:05.333Z,74.9
2019-03-20T01:28:04.265Z,74.8
2019-03-20T01:29:03.198Z,74.7
2019-03-20T01:30:02.026Z,74.7
2019-03-20T01:30:32.292Z,74.7
2019-03-20T01:31:02.955Z,75
2019-03-20T01:31:33.612Z,75
2019-03-20T01:32:03.858Z,74.9
2019-03-20T01:32:34.309Z,74.9
2019-03-20T01:33:04.472Z,75.1
2019-03-20T01:33:35.185Z,75.1
2019-03-20T01:34:57.187Z,75.3
2019-03-20T01:35:56.043Z,75.4
2019-03-20T01:36:55.368Z,75.5
2019-03-20T01:37:54.213Z,75.4
2019-03-20T01:38:53.141Z,75.4
2019-03-20T01:39:52.073Z,76
2019-03-20T01:40:22.634Z,76
2019-03-20T01:40:53.277Z,75.5
2019-03-20T01:41:23.527Z,75.5
2019-03-20T01:41:53.982Z,75.5
2019-03-20T01:42:24.431Z,75.5
2019-03-20T01:42:55.089Z,75.5
2019-03-20T01:43:25.639Z,75.5
2019-03-20T01:43:56.279Z,75.4
2019-03-20T01:44:26.865Z,75.4
2019-03-20T01:45:46.329Z,75.5
2019-03-20T01:46:45.164Z,75.6
2019-03-20T01:47:44.498Z,75.8
2019-03-20T01:48:43.474Z,75.8
2019-03-20T01:49:42.307Z,76
2019-03-20T01:50:12.941Z,76
2019-03-20T01:50:43.483Z,76
2019-03-20T01:51:14.129Z,76
2019-03-20T01:51:44.764Z,76
2019-03-20T01:52:15.326Z,76
2019-03-20T01:52:45.977Z,76
2019-03-20T01:53:16.523Z,76
2019-03-20T01:53:46.980Z,76.1
2019-03-20T01:54:17.636Z,76.1
2019-03-20T01:55:36.693Z,76.1
2019-03-20T01:56:35.430Z,76.1
2019-03-20T01:57:34.669Z,76.3
2019-03-20T01:58:33.593Z,76.3
2019-03-20T01:59:32.729Z,76.4
2019-03-20T02:00:31.457Z,76.5
2019-03-20T02:01:02.119Z,76.5
2019-03-20T02:01:32.767Z,76.5
2019-03-20T02:02:03.012Z,76.5
2019-03-20T02:02:33.659Z,76.5
2019-03-20T02:03:03.957Z,76.5
2019-03-20T02:03:34.603Z,76.4
2019-03-20T02:04:05.244Z,76.4
2019-03-20T02:06:25.700Z,76.6
2019-03-20T02:07:24.459Z,76.7
2019-03-20T02:08:23.391Z,76.6
2019-03-20T02:09:22.813Z,76.8
2019-03-20T02:10:21.543Z,76.7
2019-03-20T02:10:52.187Z,76.7
2019-03-20T02:11:22.827Z,76.9
2019-03-20T02:11:53.464Z,76.9
2019-03-20T02:12:24.116Z,76.9
2019-03-20T02:12:54.262Z,76.9
2019-03-20T02:13:25.013Z,76.9
2019-03-20T02:13:55.263Z,76.9
2019-03-20T02:15:16.638Z,77
2019-03-20T02:16:15.465Z,77
2019-03-20T02:18:13.767Z,76.9
2019-03-20T02:19:12.589Z,77.1
2019-03-20T02:20:11.824Z,77
2019-03-20T02:21:10.703Z,77
2019-03-20T02:21:40.849Z,77
2019-03-20T02:22:11.293Z,77
2019-03-20T02:22:41.942Z,77
2019-03-20T02:23:12.589Z,77
2019-03-20T02:23:42.829Z,77
2019-03-20T02:25:06.821Z,77.1
2019-03-20T02:26:05.546Z,77.1
2019-03-20T02:27:04.871Z,77.3
2019-03-20T02:28:03.769Z,77.3
2019-03-20T02:29:02.615Z,77.8
2019-03-20T02:30:01.586Z,77.7
2019-03-20T02:31:00.635Z,77.8
2019-03-20T02:31:59.983Z,77.9
2019-03-20T02:32:30.608Z,77.9
2019-03-20T02:33:01.082Z,77.6
2019-03-20T02:33:31.853Z,77.6
2019-03-20T02:34:57.043Z,77.6
2019-03-20T02:35:55.974Z,77.6
2019-03-20T02:37:53.820Z,77.7
2019-03-20T02:38:52.614Z,77.7
2019-03-20T02:39:51.595Z,77.7
2019-03-20T02:40:51.029Z,77.7
2019-03-20T02:41:49.989Z,77.7
2019-03-20T02:42:48.935Z,77.7
2019-03-20T02:43:19.494Z,77.7
2019-03-20T02:43:49.790Z,77.8
2019-03-20T02:44:46.606Z,77.8
2019-03-20T02:45:45.958Z,77.5
2019-03-20T02:46:44.914Z,77.7
2019-03-20T02:47:43.747Z,77.7
2019-03-20T02:48:42.725Z,77.7
2019-03-20T02:49:41.707Z,77.6
2019-03-20T02:50:41.065Z,77.5
2019-03-20T02:51:40.009Z,77.6
2019-03-20T02:52:38.962Z,77.5
2019-03-20T02:53:09.522Z,77.5
2019-03-20T02:53:39.722Z,77.6
2019-03-20T02:54:37.048Z,77.6
2019-03-20T02:55:35.919Z,77.5
2019-03-20T02:56:34.807Z,77.6
2019-03-20T02:57:33.749Z,77.7
2019-03-20T02:58:04.338Z,77.7
2019-03-20T02:58:34.723Z,77.8
2019-03-20T02:59:31.645Z,77.7
2019-03-20T03:00:30.994Z,77.9
2019-03-20T03:01:29.778Z,77.8
2019-03-20T03:02:29.076Z,77.9
2019-03-20T03:03:27.757Z,77.9
2019-03-20T03:04:26.688Z,77.8
2019-03-20T03:05:26.132Z,78
2019-03-20T03:06:25.071Z,78.2
2019-03-20T03:07:24.113Z,78.3
2019-03-20T03:07:54.512Z,78.3
2019-03-20T03:08:25.079Z,78.3
2019-03-20T03:08:55.754Z,78.3
2019-03-20T03:09:26.332Z,78.4
2019-03-20T03:09:56.614Z,78.4
2019-03-20T03:10:27.183Z,78.5
2019-03-20T03:11:19.885Z,78.6
2019-03-20T03:12:18.818Z,78.6
2019-03-20T03:13:17.815Z,78.6
2019-03-20T03:14:16.657Z,78.7
2019-03-20T03:15:15.817Z,78.6
2019-03-20T03:16:14.705Z,78.6
2019-03-20T03:17:13.965Z,78.7
2019-03-20T03:17:44.558Z,78.7
2019-03-20T03:18:15.079Z,78.6
2019-03-20T03:18:45.368Z,78.6
2019-03-20T03:20:10.996Z,78.7
2019-03-20T03:21:09.848Z,78.6
2019-03-20T03:22:08.793Z,78.4
2019-03-20T03:23:07.744Z,78.4
2019-03-20T03:24:06.715Z,78.4
2019-03-20T03:25:05.958Z,78.4
2019-03-20T03:26:04.959Z,78.3
2019-03-20T03:27:03.845Z,78
2019-03-20T03:27:34.528Z,78
2019-03-20T03:28:04.799Z,77.9
2019-03-20T03:28:35.096Z,77.9
2019-03-20T03:29:05.766Z,77.7
2019-03-20T03:29:36.032Z,77.7
2019-03-20T03:30:59.629Z,77.6
2019-03-20T03:31:58.657Z,77.5
2019-03-20T03:32:57.519Z,77.4
2019-03-20T03:33:56.712Z,77.4
2019-03-20T03:34:55.776Z,77.4
2019-03-20T03:36:53.683Z,77
2019-03-20T03:37:24.270Z,77
2019-03-20T03:37:54.870Z,77
2019-03-20T03:38:25.130Z,77
2019-03-20T03:38:55.659Z,77
2019-03-20T03:39:26.316Z,77
2019-03-20T03:39:57.016Z,77.1
2019-03-20T03:40:27.293Z,77.1
2019-03-20T03:41:48.712Z,76.9
2019-03-20T03:42:47.611Z,76.9
2019-03-20T03:43:46.655Z,77
2019-03-20T03:44:45.619Z,76.9
2019-03-20T03:45:45.056Z,76.9
2019-03-20T03:46:44.005Z,76.7
2019-03-20T03:47:14.210Z,76.7
2019-03-20T03:47:44.719Z,77
2019-03-20T03:48:15.451Z,77
2019-03-20T03:48:46.109Z,76.7
2019-03-20T03:49:16.684Z,76.7
2019-03-20T03:49:47.335Z,76.8
2019-03-20T03:50:17.751Z,76.8
2019-03-20T03:51:38.645Z,76.8
2019-03-20T03:52:38.020Z,77
2019-03-20T03:53:37.010Z,77
2019-03-20T03:54:35.963Z,77
2019-03-20T03:55:34.915Z,77
2019-03-20T03:56:33.905Z,76.9
2019-03-20T03:57:04.070Z,76.9
2019-03-20T03:57:34.644Z,76.9
2019-03-20T03:58:05.258Z,76.9
2019-03-20T03:58:35.486Z,76.7
2019-03-20T03:59:06.161Z,76.7
2019-03-20T03:59:36.420Z,76.7
2019-03-20T04:00:07.110Z,76.7
2019-03-20T04:00:37.389Z,76.8
2019-03-20T04:01:08.082Z,76.8
2019-03-20T04:02:27.658Z,76.6
2019-03-20T04:03:26.531Z,76.6
2019-03-20T04:04:25.974Z,76.6
2019-03-20T04:05:24.741Z,76.7
2019-03-20T04:06:36.271Z,76.6
2019-03-20T04:06:54.362Z,76.6
2019-03-20T04:07:24.629Z,76.8
2019-03-20T04:07:55.008Z,76.8
2019-03-20T04:08:25.563Z,76.8
2019-03-20T04:08:55.822Z,76.8
2019-03-20T04:09:26.492Z,76.9
2019-03-20T04:09:56.731Z,76.9
2019-03-20T04:10:27.187Z,76.9
2019-03-20T04:10:57.773Z,76.9
2019-03-20T04:12:17.847Z,76.7
2019-03-20T04:13:16.795Z,76.8
2019-03-20T04:14:15.538Z,76.8
2019-03-20T04:15:14.908Z,76.9
2019-03-20T04:16:13.450Z,77
2019-03-20T04:17:12.883Z,77.3
2019-03-20T04:17:43.139Z,77.3
2019-03-20T04:18:13.426Z,77.4
2019-03-20T04:18:43.770Z,77.4
2019-03-20T04:19:14.027Z,77.3
2019-03-20T04:19:44.691Z,77.3
2019-03-20T04:20:15.249Z,77.5
2019-03-20T04:20:45.963Z,77.5
2019-03-20T04:22:07.354Z,77.6
2019-03-20T04:23:06.717Z,77.6
2019-03-20T04:24:05.664Z,77.7
2019-03-20T04:26:03.903Z,77.7
2019-03-20T04:27:02.867Z,78.1
2019-03-20T04:27:33.118Z,78.1
2019-03-20T04:28:03.308Z,77.9
2019-03-20T04:28:33.685Z,77.9
2019-03-20T04:29:04.349Z,78
2019-03-20T04:29:34.634Z,78
2019-03-20T04:30:04.888Z,78.1
2019-03-20T04:30:35.585Z,78.1
2019-03-20T04:31:57.694Z,78.4
2019-03-20T04:32:56.531Z,78.5
2019-03-20T04:33:57.950Z,78.6
2019-03-20T04:34:54.397Z,78.7
2019-03-20T04:35:53.851Z,78.7
2019-03-20T04:36:52.342Z,79
2019-03-20T04:37:51.802Z,79.2
2019-03-20T04:38:22.482Z,79.2
2019-03-20T04:38:52.627Z,79.2
2019-03-20T04:39:22.841Z,79.2
2019-03-20T04:39:53.589Z,79.6
2019-03-20T04:40:24.237Z,79.6
2019-03-20T04:41:47.241Z,79.9
2019-03-20T04:42:46.598Z,80.1
2019-03-20T04:43:45.441Z,80.3
2019-03-20T04:44:44.776Z,80.4
2019-03-20T04:45:43.604Z,80.5
2019-03-20T04:46:42.441Z,80.5
2019-03-20T04:47:41.788Z,80.8
2019-03-20T04:48:40.540Z,81.1
2019-03-20T04:49:11.159Z,81.1
2019-03-20T04:49:41.295Z,81.1
2019-03-20T04:50:11.967Z,81.1
2019-03-20T04:50:42.241Z,81
2019-03-20T04:51:12.883Z,81
2019-03-20T04:51:43.326Z,81.2
2019-03-20T04:52:36.575Z,81.2
2019-03-20T04:53:35.402Z,81.2
2019-03-20T04:54:34.330Z,81.2
2019-03-20T04:55:33.567Z,81.1
2019-03-20T04:56:32.482Z,81.1
2019-03-20T04:57:31.523Z,80.9
2019-03-20T04:58:30.349Z,80.8
2019-03-20T04:59:00.897Z,80.8
2019-03-20T04:59:31.532Z,80.6
2019-03-20T05:00:02.083Z,80.6
2019-03-20T05:00:32.740Z,80.6
2019-03-20T05:01:03.049Z,80.6
2019-03-20T05:01:33.507Z,80.5
2019-03-20T05:02:26.201Z,80.5
2019-03-20T05:03:25.526Z,80.6
2019-03-20T05:04:24.352Z,80.6
2019-03-20T05:05:23.302Z,80.6
2019-03-20T05:06:22.127Z,80.6
2019-03-20T05:07:21.358Z,80.7
2019-03-20T05:08:20.195Z,80.8
2019-03-20T05:09:19.116Z,80.7
2019-03-20T05:09:49.782Z,80.7
2019-03-20T05:10:19.928Z,81
2019-03-20T05:11:17.256Z,80.9
2019-03-20T05:12:16.441Z,81
2019-03-20T05:13:15.082Z,81.1
2019-03-20T05:14:14.316Z,81.1
2019-03-20T05:14:44.565Z,81.1
2019-03-20T05:15:14.710Z,81
2019-03-20T05:16:12.028Z,81
2019-03-20T05:17:11.366Z,81
2019-03-20T05:18:10.190Z,81.2
2019-03-20T05:19:09.028Z,81.2
2019-03-20T05:20:08.166Z,81.4
2019-03-20T05:21:06.998Z,81.4
2019-03-20T05:22:06.223Z,81.4
2019-03-20T05:23:05.066Z,81.3
2019-03-20T05:24:03.966Z,81.5
2019-03-20T05:24:34.211Z,81.5
2019-03-20T05:26:02.235Z,81.4
2019-03-20T05:27:00.961Z,81.5
2019-03-20T05:28:00.188Z,81.7
2019-03-20T05:28:58.914Z,81.7
2019-03-20T05:29:58.252Z,81.6
2019-03-20T05:30:57.102Z,81.6
2019-03-20T05:31:55.939Z,81.7
2019-03-20T05:32:55.176Z,81.7
2019-03-20T05:33:54.096Z,81.7
2019-03-20T05:34:24.743Z,81.7
2019-03-20T05:34:55.384Z,81.9
2019-03-20T05:35:26.106Z,81.9
2019-03-20T05:36:50.912Z,81.8
2019-03-20T05:37:49.748Z,81.9
2019-03-20T05:38:48.986Z,81.8
2019-03-20T05:39:47.917Z,81.9
2019-03-20T05:40:46.749Z,81.8
2019-03-20T05:41:46.071Z,81.9
2019-03-20T05:42:44.901Z,81.8
2019-03-20T05:43:43.842Z,81.8
2019-03-20T05:44:14.485Z,81.8
2019-03-20T05:44:44.717Z,81.6
2019-03-20T05:45:14.954Z,81.6
2019-03-20T05:45:45.191Z,81.6
2019-03-20T05:46:15.837Z,81.6
2019-03-20T05:47:39.829Z,81.6
2019-03-20T05:48:38.658Z,81.4
2019-03-20T05:49:37.990Z,81.2
2019-03-20T05:50:36.825Z,81.2
2019-03-20T05:51:36.057Z,81
2019-03-20T05:52:34.995Z,80.8
2019-03-20T05:53:33.628Z,80.7
2019-03-20T05:54:04.070Z,80.7
2019-03-20T05:54:34.738Z,80.6
2019-03-20T05:55:05.334Z,80.6
2019-03-20T05:55:35.570Z,80.5
2019-03-20T05:56:06.017Z,80.5
2019-03-20T05:56:36.679Z,80.1
2019-03-20T05:57:07.228Z,80.1
2019-03-20T05:58:28.508Z,79.8
2019-03-20T05:59:27.936Z,79.7
2019-03-20T06:00:26.766Z,79.1
2019-03-20T06:01:25.687Z,78.7
2019-03-20T06:02:26.154Z,78.6
2019-03-20T06:03:23.468Z,78.5
2019-03-20T06:03:54.108Z,78.5
2019-03-20T06:04:24.660Z,78.4
2019-03-20T06:04:55.234Z,78.4
2019-03-20T06:05:25.787Z,78.7
2019-03-20T06:05:56.332Z,78.7
2019-03-20T06:06:26.970Z,78.6
2019-03-20T06:06:57.203Z,78.6
2019-03-20T06:08:18.675Z,78.7
2019-03-20T06:09:17.605Z,78.9
2019-03-20T06:10:16.500Z,79
2019-03-20T06:11:15.437Z,79.5
2019-03-20T06:12:14.265Z,79.3
2019-03-20T06:13:13.601Z,79.3
2019-03-20T06:13:44.249Z,79.3
2019-03-20T06:14:14.882Z,79.6
2019-03-20T06:14:45.518Z,79.6
2019-03-20T06:15:16.160Z,79.7
2019-03-20T06:15:46.815Z,79.7
2019-03-20T06:16:17.062Z,80
2019-03-20T06:16:47.616Z,80
2019-03-20T06:17:18.266Z,80
2019-03-20T06:17:48.918Z,80
2019-03-20T06:19:07.477Z,80
2019-03-20T06:20:06.314Z,80.2
2019-03-20T06:21:05.159Z,80.1
2019-03-20T06:22:04.493Z,80.2
2019-03-20T06:24:02.310Z,80.2
2019-03-20T06:24:32.861Z,80.2
2019-03-20T06:25:03.034Z,80.2
2019-03-20T06:25:33.754Z,80.2
2019-03-20T06:26:04.332Z,80.3
2019-03-20T06:26:34.901Z,80.3
2019-03-20T06:27:05.664Z,80.3
2019-03-20T06:27:35.904Z,80.3
2019-03-20T06:28:57.431Z,80.3
2019-03-20T06:29:56.155Z,80.3
2019-03-20T06:30:55.388Z,80.3
2019-03-20T06:31:54.126Z,80.2
2019-03-20T06:32:53.451Z,80.4
2019-03-20T06:33:52.189Z,80.3
2019-03-20T06:34:22.434Z,80.3
2019-03-20T06:34:53.083Z,80.4
2019-03-20T06:35:23.630Z,80.4
2019-03-20T06:35:54.089Z,80.3
2019-03-20T06:36:24.721Z,80.3
2019-03-20T06:36:54.958Z,80.1
2019-03-20T06:37:32.990Z,80.1
2019-03-20T06:38:46.870Z,80
2019-03-20T06:39:46.107Z,79.9
2019-03-20T06:40:45.240Z,79.8
2019-03-20T06:41:44.065Z,79.8
2019-03-20T06:42:43.295Z,79.5
2019-03-20T06:43:42.271Z,79.5
2019-03-20T06:44:12.509Z,79.5
2019-03-20T06:44:42.959Z,79.5
2019-03-20T06:45:13.498Z,79.5
2019-03-20T06:45:44.234Z,79.3
2019-03-20T06:46:14.779Z,79.3
2019-03-20T06:46:45.440Z,79.2
2019-03-20T06:47:15.682Z,79.2
2019-03-20T06:48:37.046Z,79
2019-03-20T06:49:35.773Z,78.8
2019-03-20T06:50:34.949Z,78.5
2019-03-20T06:51:33.779Z,78.4
2019-03-20T06:52:33.108Z,78.2
2019-03-20T06:53:31.833Z,78.2
2019-03-20T06:54:30.659Z,77.9
2019-03-20T06:55:01.724Z,77.9
2019-03-20T06:55:31.510Z,77.8
2019-03-20T06:56:01.744Z,77.8
2019-03-20T06:56:32.398Z,77.7
2019-03-20T06:57:02.640Z,77.7
2019-03-20T06:58:26.717Z,76.7
2019-03-20T06:59:25.641Z,76.8
2019-03-20T07:00:24.871Z,76.6
2019-03-20T07:01:23.804Z,76.4
2019-03-20T07:02:22.653Z,76.3
2019-03-20T07:03:21.573Z,76.3
2019-03-20T07:04:20.907Z,76
2019-03-20T07:05:19.744Z,76.1
2019-03-20T07:05:49.978Z,76.1
2019-03-20T07:06:20.221Z,75.9
2019-03-20T07:06:50.485Z,75.9
2019-03-20T07:07:20.932Z,76
2019-03-20T07:09:15.823Z,75.7
2019-03-20T07:10:14.759Z,75.6
2019-03-20T07:11:13.590Z,75.8
2019-03-20T07:12:12.510Z,75.6
2019-03-20T07:13:11.643Z,74.9
2019-03-20T07:14:10.569Z,75.1
2019-03-20T07:15:09.807Z,74.8
2019-03-20T07:15:40.453Z,74.8
2019-03-20T07:16:10.709Z,74.7
2019-03-20T07:16:40.946Z,74.7
2019-03-20T07:17:11.126Z,74.7
2019-03-20T07:18:06.835Z,74.8
2019-03-20T07:19:05.577Z,74.9
2019-03-20T07:20:04.912Z,74.7
2019-03-20T07:21:03.833Z,74.4
2019-03-20T07:22:02.764Z,74.1
2019-03-20T07:23:01.701Z,74.3
2019-03-20T07:24:00.523Z,74.1
2019-03-20T07:24:59.646Z,74.1
2019-03-20T07:25:58.546Z,74
2019-03-20T07:26:29.047Z,74
2019-03-20T07:26:59.315Z,73.9
2019-03-20T07:27:56.637Z,73.9
2019-03-20T07:28:55.515Z,73.9
2019-03-20T07:29:54.855Z,74.1
2019-03-20T07:30:53.587Z,73.4
2019-03-20T07:31:24.254Z,73.4
2019-03-20T07:31:54.604Z,73.2
2019-03-20T07:32:51.427Z,72.9
2019-03-20T07:33:50.855Z,72.8
2019-03-20T07:34:49.586Z,72.8
2019-03-20T07:35:48.724Z,72.5
2019-03-20T07:36:47.548Z,72.4
2019-03-20T07:37:56.560Z,72.6
2019-03-20T07:38:45.790Z,72.7
2019-03-20T07:39:44.613Z,72.5
2019-03-20T07:40:43.563Z,72.4
2019-03-20T07:41:13.867Z,72.4
2019-03-20T07:42:41.402Z,72.1
2019-03-20T07:43:40.656Z,72
2019-03-20T07:44:39.523Z,72
2019-03-20T07:45:38.768Z,71.9
2019-03-20T07:46:37.590Z,71.3
2019-03-20T07:47:36.832Z,71.1
2019-03-20T07:48:35.750Z,71.6
2019-03-20T07:49:34.477Z,71.1
2019-03-20T07:50:33.899Z,71.1
2019-03-20T07:51:04.359Z,71.1
2019-03-20T07:51:34.599Z,71
2019-03-20T07:52:04.891Z,71
2019-03-20T07:53:30.409Z,70.7
2019-03-20T07:54:29.753Z,70.6
2019-03-20T07:55:28.673Z,70.3
2019-03-20T07:57:26.690Z,70
2019-03-20T07:58:25.613Z,69.9
2019-03-20T07:59:24.504Z,70
2019-03-20T08:00:23.980Z,70.2
2019-03-20T08:00:54.433Z,70.2
2019-03-20T08:01:25.080Z,69.9
2019-03-20T08:01:55.536Z,69.9
2019-03-20T08:02:26.232Z,68.5
2019-03-20T08:02:56.785Z,68.5
2019-03-20T08:04:19.878Z,68
2019-03-20T08:05:29.682Z,68.1
2019-03-20T08:06:17.593Z,68
2019-03-20T08:07:17.025Z,67.6
2019-03-20T08:08:15.757Z,67.6
2019-03-20T08:09:15.058Z,67.1
2019-03-20T08:10:13.624Z,67.1
2019-03-20T08:10:43.861Z,67.1
2019-03-20T08:11:14.015Z,66.8
2019-03-20T08:11:44.654Z,66.8
2019-03-20T08:12:15.300Z,66
2019-03-20T08:12:45.845Z,66
2019-03-20T08:14:09.743Z,65.3
2019-03-20T08:15:09.072Z,65.6
2019-03-20T08:16:08.109Z,65.8
2019-03-20T08:17:06.959Z,65.8
2019-03-20T08:18:06.203Z,65.4
2019-03-20T08:19:05.028Z,65.4
2019-03-20T08:20:03.861Z,64.5
2019-03-20T08:20:34.017Z,64.5
2019-03-20T08:21:04.557Z,64.8
2019-03-20T08:21:35.314Z,64.8
2019-03-20T08:22:05.851Z,64.9
2019-03-20T08:22:35.986Z,64.9
2019-03-20T08:23:06.332Z,65.1
2019-03-20T08:23:36.699Z,65.1
2019-03-20T08:24:59.137Z,65.1
2019-03-20T08:25:58.298Z,65.2
2019-03-20T08:26:57.029Z,65.1
2019-03-20T08:27:55.959Z,64.4
2019-03-20T08:28:55.211Z,65.1
2019-03-20T08:29:54.134Z,64.9
2019-03-20T08:30:24.699Z,64.9
2019-03-20T08:30:55.255Z,64.6
2019-03-20T08:31:25.464Z,64.6
2019-03-20T08:31:55.989Z,64.9
2019-03-20T08:32:26.228Z,64.9
2019-03-20T08:32:56.774Z,64.9
2019-03-20T08:33:27.322Z,64.9
2019-03-20T08:33:57.872Z,65
2019-03-20T08:34:28.690Z,65
2019-03-20T08:35:48.579Z,65.5
2019-03-20T08:36:47.217Z,65.3
2019-03-20T08:37:46.547Z,65.3
2019-03-20T08:38:45.412Z,65.1
2019-03-20T08:39:44.648Z,64.9
2019-03-20T08:40:14.784Z,64.9
2019-03-20T08:40:45.439Z,64.8
2019-03-20T08:41:16.097Z,64.8
2019-03-20T08:41:46.635Z,64.5
2019-03-20T08:42:17.084Z,64.5
2019-03-20T08:42:47.724Z,64.3
2019-03-20T08:43:17.963Z,64.3
2019-03-20T08:43:48.109Z,64.2
2019-03-20T08:44:18.653Z,64.2
2019-03-20T08:45:38.618Z,63.7
2019-03-20T08:46:37.762Z,64.1
2019-03-20T08:47:36.985Z,64.3
2019-03-20T08:48:35.811Z,64
2019-03-20T08:49:34.534Z,63.6
2019-03-20T08:50:33.963Z,63.2
2019-03-20T08:51:04.196Z,63.2
2019-03-20T08:51:34.640Z,63.2
2019-03-20T08:52:05.089Z,63.2
2019-03-20T08:52:35.747Z,62.7
2019-03-20T08:53:06.307Z,62.7
2019-03-20T08:53:36.548Z,63
2019-03-20T08:54:07.189Z,63
2019-03-20T08:56:28.046Z,62.3
2019-03-20T08:57:26.873Z,62.5
2019-03-20T08:58:26.259Z,61.7
2019-03-20T08:59:25.088Z,61.9
2019-03-20T09:00:24.331Z,61.7
2019-03-20T09:01:29.240Z,60.8
2019-03-20T09:01:53.882Z,60.8
2019-03-20T09:02:24.526Z,60.9
2019-03-20T09:02:55.067Z,60.9
2019-03-20T09:03:25.826Z,61.1
2019-03-20T09:03:55.986Z,61.1
2019-03-20T09:05:19.530Z,60.9
2019-03-20T09:06:18.367Z,60
2019-03-20T09:07:17.286Z,60.2
2019-03-20T09:08:16.628Z,60
2019-03-20T09:09:15.737Z,60.5
2019-03-20T09:10:14.472Z,60.1
2019-03-20T09:11:13.803Z,59.9
2019-03-20T09:11:44.037Z,59.9
2019-03-20T09:12:14.277Z,60.1
2019-03-20T09:12:44.427Z,60.1
2019-03-20T09:13:14.881Z,59
2019-03-20T09:13:45.533Z,59
2019-03-20T09:15:09.843Z,60.1
2019-03-20T09:16:09.175Z,60.7
2019-03-20T09:17:07.970Z,59.5
2019-03-20T09:18:07.362Z,58
2019-03-20T09:19:06.287Z,58.5
2019-03-20T09:20:05.043Z,58
2019-03-20T09:21:04.274Z,58.2
2019-03-20T09:22:03.134Z,57.7
2019-03-20T09:22:33.699Z,57.7
2019-03-20T09:24:01.523Z,57.9
2019-03-20T09:25:00.455Z,57.1
2019-03-20T09:25:59.719Z,56.8
2019-03-20T09:26:58.342Z,55.1
2019-03-20T09:27:57.673Z,55.3
2019-03-20T09:28:56.467Z,55.7
2019-03-20T09:29:55.709Z,54.7
2019-03-20T09:30:54.551Z,55.2
2019-03-20T09:31:53.783Z,53
2019-03-20T09:32:52.703Z,53.2
2019-03-20T09:33:23.262Z,53.2
2019-03-20T09:33:54.083Z,52.2
2019-03-20T09:34:50.813Z,53.1
2019-03-20T09:35:50.244Z,53.6
2019-03-20T09:36:49.075Z,53.6
2019-03-20T09:37:52.876Z,53.5
2019-03-20T09:38:19.066Z,53.5
2019-03-20T09:38:49.413Z,54.1
2019-03-20T09:39:46.320Z,52.3
2019-03-20T09:40:45.549Z,52.7
2019-03-20T09:41:44.683Z,53.2
2019-03-20T09:42:43.616Z,52.5
2019-03-20T09:43:42.759Z,51.7
2019-03-20T09:44:41.675Z,52.3
2019-03-20T09:45:41.055Z,53
2019-03-20T09:46:39.780Z,52.4
2019-03-20T09:47:39.014Z,51.1
2019-03-20T09:48:09.521Z,51.1
2019-03-20T09:49:36.945Z,51
2019-03-20T09:50:36.269Z,49.4
2019-03-20T09:51:34.997Z,50
2019-03-20T09:52:34.323Z,50.7
2019-03-20T09:53:33.242Z,51
2019-03-20T09:54:32.571Z,52.1
2019-03-20T09:55:31.494Z,50.8
2019-03-20T09:56:30.729Z,51.1
2019-03-20T09:57:29.362Z,50.1
2019-03-20T09:58:10.900Z,50.1
2019-03-20T09:58:30.447Z,50.2
2019-03-20T09:59:00.674Z,50.2
2019-03-20T10:00:26.776Z,49.2
2019-03-20T10:01:26.246Z,48.9
2019-03-20T10:02:24.975Z,49.7
2019-03-20T10:03:23.913Z,49.6
2019-03-20T10:04:23.244Z,49.9
2019-03-20T10:05:22.518Z,49.6
2019-03-20T10:06:21.454Z,50
2019-03-20T10:07:20.596Z,50.2
2019-03-20T10:08:19.415Z,50.4
2019-03-20T10:08:54.637Z,50.4
2019-03-20T10:09:20.618Z,50.1
2019-03-20T10:09:51.166Z,50.1
2019-03-20T10:11:16.759Z,50.7
2019-03-20T10:12:16.095Z,51.9
2019-03-20T10:13:15.262Z,51.5
2019-03-20T10:14:14.091Z,52
2019-03-20T10:15:12.916Z,50.5
2019-03-20T10:16:12.240Z,51.1
2019-03-20T10:17:11.066Z,50.4
2019-03-20T10:17:41.605Z,50.4
2019-03-20T10:18:12.151Z,50.8
2019-03-20T10:18:42.789Z,50.8
2019-03-20T10:19:13.079Z,50.3
2019-03-20T10:19:43.740Z,50.3
2019-03-20T10:20:14.381Z,51.2
2019-03-20T10:20:44.919Z,51.2
2019-03-20T10:22:06.895Z,51.2
2019-03-20T10:23:05.812Z,51.3
2019-03-20T10:24:04.949Z,50.4
2019-03-20T10:25:03.895Z,51.5
2019-03-20T10:26:03.129Z,51.3
2019-03-20T10:27:02.065Z,51.4
2019-03-20T10:27:32.307Z,51.4
2019-03-20T10:28:02.551Z,50.8
2019-03-20T10:28:32.788Z,50.8
2019-03-20T10:29:03.073Z,50.4
2019-03-20T10:29:33.743Z,50.4
2019-03-20T10:30:04.292Z,50.9
2019-03-20T10:30:34.546Z,50.9
2019-03-20T10:31:05.193Z,50.6
2019-03-20T10:31:35.457Z,50.6
2019-03-20T10:32:56.550Z,51.3
2019-03-20T10:33:55.789Z,50.4
2019-03-20T10:34:54.934Z,50.6
2019-03-20T10:35:53.857Z,50
2019-03-20T10:36:53.180Z,50.6
2019-03-20T10:37:52.024Z,50.2
2019-03-20T10:38:22.488Z,50.2
2019-03-20T10:38:53.224Z,50.1
2019-03-20T10:39:23.537Z,50.1
2019-03-20T10:39:54.195Z,50.4
2019-03-20T10:40:24.752Z,50.4
2019-03-20T10:40:55.407Z,51.3
2019-03-20T10:41:25.647Z,51.3
2019-03-20T10:41:55.888Z,51.3
2019-03-20T10:42:26.438Z,51.3
2019-03-20T10:43:46.550Z,51.3
2019-03-20T10:44:45.876Z,51
2019-03-20T10:45:45.119Z,50.9
2019-03-20T10:46:44.060Z,51.8
2019-03-20T10:47:42.993Z,51.1
2019-03-20T10:48:13.663Z,51.1
2019-03-20T10:48:44.316Z,51.3
2019-03-20T10:49:14.770Z,51.3
2019-03-20T10:49:45.556Z,51.6
2019-03-20T10:50:16.218Z,51.6
2019-03-20T10:50:46.766Z,51.6
2019-03-20T10:51:17.333Z,51.6
2019-03-20T10:51:48.010Z,51.3
2019-03-20T10:52:18.096Z,51.3
2019-03-20T10:53:37.682Z,50